sensor_id;sensor_type;location;lat;lon;timestamp;pressure;altitude;pressure_sealevel;temperature;humidity
34065;BME280;20339;49.754;20.158;2023-07-24T00:02:16;96253.23;;;22.16;49.58
34065;BME280;20339;49.754;20.158;2023-07-24T00:04:47;96249.82;;;22.14;49.60
34065;BME280;20339;49.754;20.158;2023-07-24T00:07:18;96249.73;;;22.14;49.66
34065;BME280;20339;49.754;20.158;2023-07-24T00:09:49;96247.92;;;22.11;49.66
34065;BME280;20339;49.754;20.158;2023-07-24T00:12:20;96247.95;;;22.10;49.62
34065;BME280;20339;49.754;20.158;2023-07-24T00:14:54;96245.61;;;22.08;49.81
34065;BME280;20339;49.754;20.158;2023-07-24T00:17:25;96245.29;;;22.07;49.75
34065;BME280;20339;49.754;20.158;2023-07-24T00:19:56;96244.83;;;22.04;49.94
34065;BME280;20339;49.754;20.158;2023-07-24T00:22:27;96240.20;;;21.98;50.03
34065;BME280;20339;49.754;20.158;2023-07-24T00:24:58;96238.77;;;21.92;50.16
34065;BME280;20339;49.754;20.158;2023-07-24T00:27:29;96238.70;;;21.87;50.27
34065;BME280;20339;49.754;20.158;2023-07-24T00:30:01;96239.39;;;21.88;50.44
34065;BME280;20339;49.754;20.158;2023-07-24T00:32:34;96235.17;;;21.89;50.62
34065;BME280;20339;49.754;20.158;2023-07-24T00:35:13;96234.99;;;21.86;50.55
34065;BME280;20339;49.754;20.158;2023-07-24T00:37:44;96231.24;;;21.84;50.64
34065;BME280;20339;49.754;20.158;2023-07-24T00:40:15;96229.89;;;21.81;50.85
34065;BME280;20339;49.754;20.158;2023-07-24T00:42:49;96227.31;;;21.84;50.88
34065;BME280;20339;49.754;20.158;2023-07-24T00:45:22;96225.57;;;21.85;51.03
34065;BME280;20339;49.754;20.158;2023-07-24T00:47:55;96220.13;;;21.82;51.16
34065;BME280;20339;49.754;20.158;2023-07-24T00:50:27;96219.88;;;21.78;51.23
34065;BME280;20339;49.754;20.158;2023-07-24T00:52:58;96214.79;;;21.78;51.39
34065;BME280;20339;49.754;20.158;2023-07-24T00:55:30;96215.81;;;21.79;51.61
34065;BME280;20339;49.754;20.158;2023-07-24T00:58:04;96216.20;;;21.80;51.74
34065;BME280;20339;49.754;20.158;2023-07-24T01:00:35;96206.67;;;21.77;51.70
34065;BME280;20339;49.754;20.158;2023-07-24T01:03:11;96204.34;;;21.75;51.98
34065;BME280;20339;49.754;20.158;2023-07-24T01:05:45;96208.36;;;21.77;52.05
34065;BME280;20339;49.754;20.158;2023-07-24T01:08:17;96205.91;;;21.82;52.12
34065;BME280;20339;49.754;20.158;2023-07-24T01:10:48;96199.19;;;21.90;52.23
34065;BME280;20339;49.754;20.158;2023-07-24T01:13:22;96201.55;;;21.94;52.19
34065;BME280;20339;49.754;20.158;2023-07-24T01:15:58;96199.60;;;21.97;52.30
34065;BME280;20339;49.754;20.158;2023-07-24T01:18:32;96196.98;;;22.02;52.20
34065;BME280;20339;49.754;20.158;2023-07-24T01:21:11;96206.16;;;22.06;52.33
34065;BME280;20339;49.754;20.158;2023-07-24T01:23:58;96199.39;;;22.10;52.39
34065;BME280;20339;49.754;20.158;2023-07-24T01:26:33;96201.79;;;22.11;52.40
34065;BME280;20339;49.754;20.158;2023-07-24T01:29:07;96205.84;;;22.10;52.56
34065;BME280;20339;49.754;20.158;2023-07-24T01:31:38;96203.89;;;22.12;52.64
34065;BME280;20339;49.754;20.158;2023-07-24T01:34:09;96208.60;;;22.12;52.69
34065;BME280;20339;49.754;20.158;2023-07-24T01:36:43;96203.52;;;22.13;52.75
34065;BME280;20339;49.754;20.158;2023-07-24T01:39:14;96196.02;;;22.11;52.87
34065;BME280;20339;49.754;20.158;2023-07-24T01:41:46;96204.20;;;22.12;53.10
34065;BME280;20339;49.754;20.158;2023-07-24T01:44:17;96193.27;;;22.14;53.16
34065;BME280;20339;49.754;20.158;2023-07-24T01:46:48;96191.83;;;22.16;53.32
34065;BME280;20339;49.754;20.158;2023-07-24T01:49:19;96194.58;;;22.14;53.36
34065;BME280;20339;49.754;20.158;2023-07-24T01:51:50;96195.53;;;22.11;53.56
34065;BME280;20339;49.754;20.158;2023-07-24T01:54:21;96194.17;;;22.09;53.68
34065;BME280;20339;49.754;20.158;2023-07-24T01:56:52;96198.25;;;22.08;53.94
34065;BME280;20339;49.754;20.158;2023-07-24T01:59:23;96195.45;;;22.06;53.86
34065;BME280;20339;49.754;20.158;2023-07-24T02:01:54;96197.30;;;22.02;54.02
34065;BME280;20339;49.754;20.158;2023-07-24T02:04:25;96194.27;;;21.97;54.05
34065;BME280;20339;49.754;20.158;2023-07-24T02:06:56;96190.45;;;21.94;54.27
34065;BME280;20339;49.754;20.158;2023-07-24T02:09:27;96185.61;;;21.95;54.61
34065;BME280;20339;49.754;20.158;2023-07-24T02:11:58;96184.95;;;21.97;54.85
34065;BME280;20339;49.754;20.158;2023-07-24T02:14:29;96181.89;;;21.98;54.96
34065;BME280;20339;49.754;20.158;2023-07-24T02:17:00;96180.66;;;21.98;55.13
34065;BME280;20339;49.754;20.158;2023-07-24T02:19:31;96174.67;;;22.00;55.38
34065;BME280;20339;49.754;20.158;2023-07-24T02:22:02;96174.77;;;22.03;55.41
34065;BME280;20339;49.754;20.158;2023-07-24T02:24:34;96173.36;;;22.00;55.25
34065;BME280;20339;49.754;20.158;2023-07-24T02:27:11;96169.75;;;21.97;55.46
34065;BME280;20339;49.754;20.158;2023-07-24T02:29:43;96162.60;;;21.93;55.71
34065;BME280;20339;49.754;20.158;2023-07-24T02:32:16;96169.53;;;21.98;55.88
34065;BME280;20339;49.754;20.158;2023-07-24T02:34:47;96168.83;;;21.96;55.90
34065;BME280;20339;49.754;20.158;2023-07-24T02:37:18;96168.52;;;21.96;55.90
34065;BME280;20339;49.754;20.158;2023-07-24T02:39:49;96170.16;;;21.98;56.06
34065;BME280;20339;49.754;20.158;2023-07-24T02:42:22;96169.25;;;21.99;56.11
34065;BME280;20339;49.754;20.158;2023-07-24T02:44:55;96163.72;;;22.00;56.31
34065;BME280;20339;49.754;20.158;2023-07-24T02:47:27;96161.97;;;22.02;56.21
34065;BME280;20339;49.754;20.158;2023-07-24T02:49:58;96168.96;;;22.01;56.35
34065;BME280;20339;49.754;20.158;2023-07-24T02:52:28;96164.66;;;21.97;56.41
34065;BME280;20339;49.754;20.158;2023-07-24T02:54:59;96166.84;;;21.93;56.42
34065;BME280;20339;49.754;20.158;2023-07-24T02:57:30;96164.02;;;21.89;56.58
34065;BME280;20339;49.754;20.158;2023-07-24T03:00:01;96159.45;;;21.88;56.78
34065;BME280;20339;49.754;20.158;2023-07-24T03:02:33;96159.34;;;21.86;56.87
34065;BME280;20339;49.754;20.158;2023-07-24T03:05:05;96157.35;;;21.82;56.88
34065;BME280;20339;49.754;20.158;2023-07-24T03:07:38;96151.80;;;21.78;56.89
34065;BME280;20339;49.754;20.158;2023-07-24T03:10:12;96152.36;;;21.74;56.99
34065;BME280;20339;49.754;20.158;2023-07-24T03:12:43;96151.83;;;21.74;57.02
34065;BME280;20339;49.754;20.158;2023-07-24T03:15:16;96151.22;;;21.76;57.03
34065;BME280;20339;49.754;20.158;2023-07-24T03:17:47;96146.64;;;21.78;57.09
34065;BME280;20339;49.754;20.158;2023-07-24T03:20:21;96149.20;;;21.80;57.14
34065;BME280;20339;49.754;20.158;2023-07-24T03:22:55;96150.32;;;21.77;57.04
34065;BME280;20339;49.754;20.158;2023-07-24T03:25:28;96153.42;;;21.78;57.05
34065;BME280;20339;49.754;20.158;2023-07-24T03:28:01;96152.73;;;21.82;57.19
34065;BME280;20339;49.754;20.158;2023-07-24T03:30:32;96151.96;;;21.82;57.14
34065;BME280;20339;49.754;20.158;2023-07-24T03:33:06;96148.77;;;21.81;57.22
34065;BME280;20339;49.754;20.158;2023-07-24T03:35:45;96153.41;;;21.82;57.43
34065;BME280;20339;49.754;20.158;2023-07-24T03:38:16;96151.44;;;21.84;57.54
34065;BME280;20339;49.754;20.158;2023-07-24T03:40:47;96156.48;;;21.85;57.53
34065;BME280;20339;49.754;20.158;2023-07-24T03:43:19;96154.46;;;21.85;57.57
34065;BME280;20339;49.754;20.158;2023-07-24T03:45:50;96155.23;;;21.85;57.75
34065;BME280;20339;49.754;20.158;2023-07-24T03:48:21;96154.09;;;21.86;57.67
34065;BME280;20339;49.754;20.158;2023-07-24T03:50:59;96156.05;;;21.82;57.68
34065;BME280;20339;49.754;20.158;2023-07-24T03:53:30;96160.05;;;21.78;57.68
34065;BME280;20339;49.754;20.158;2023-07-24T03:56:01;96160.50;;;21.68;57.88
34065;BME280;20339;49.754;20.158;2023-07-24T03:58:32;96158.45;;;21.60;57.93
34065;BME280;20339;49.754;20.158;2023-07-24T04:01:08;96158.45;;;21.51;57.91
34065;BME280;20339;49.754;20.158;2023-07-24T04:03:46;96155.70;;;21.43;57.98
34065;BME280;20339;49.754;20.158;2023-07-24T04:06:17;96160.84;;;21.38;58.22
34065;BME280;20339;49.754;20.158;2023-07-24T04:08:48;96161.02;;;21.35;58.29
34065;BME280;20339;49.754;20.158;2023-07-24T04:11:19;96158.02;;;21.30;58.44
34065;BME280;20339;49.754;20.158;2023-07-24T04:13:50;96156.31;;;21.26;58.65
34065;BME280;20339;49.754;20.158;2023-07-24T04:16:21;96159.09;;;21.24;58.91
34065;BME280;20339;49.754;20.158;2023-07-24T04:18:55;96151.27;;;21.27;59.28
34065;BME280;20339;49.754;20.158;2023-07-24T04:21:28;96145.95;;;21.32;59.34
34065;BME280;20339;49.754;20.158;2023-07-24T04:24:00;96144.01;;;21.36;59.39
34065;BME280;20339;49.754;20.158;2023-07-24T04:26:33;96140.33;;;21.41;59.30
34065;BME280;20339;49.754;20.158;2023-07-24T04:29:05;96141.52;;;21.42;59.65
34065;BME280;20339;49.754;20.158;2023-07-24T04:31:37;96139.11;;;21.47;59.54
34065;BME280;20339;49.754;20.158;2023-07-24T04:34:11;96143.73;;;21.52;59.52
34065;BME280;20339;49.754;20.158;2023-07-24T04:36:42;96149.02;;;21.54;59.57
34065;BME280;20339;49.754;20.158;2023-07-24T04:39:15;96150.96;;;21.54;59.54
34065;BME280;20339;49.754;20.158;2023-07-24T04:41:48;96152.21;;;21.55;59.65
34065;BME280;20339;49.754;20.158;2023-07-24T04:44:19;96153.73;;;21.59;59.84
34065;BME280;20339;49.754;20.158;2023-07-24T04:46:50;96144.61;;;21.62;59.84
34065;BME280;20339;49.754;20.158;2023-07-24T04:49:21;96156.34;;;21.63;59.89
34065;BME280;20339;49.754;20.158;2023-07-24T04:51:52;96151.02;;;21.64;59.80
34065;BME280;20339;49.754;20.158;2023-07-24T04:54:23;96144.23;;;21.63;59.61
34065;BME280;20339;49.754;20.158;2023-07-24T04:56:58;96141.99;;;21.58;59.54
34065;BME280;20339;49.754;20.158;2023-07-24T04:59:29;96141.80;;;21.52;59.66
34065;BME280;20339;49.754;20.158;2023-07-24T05:02:00;96142.34;;;21.46;59.72
34065;BME280;20339;49.754;20.158;2023-07-24T05:04:31;96142.20;;;21.42;59.76
34065;BME280;20339;49.754;20.158;2023-07-24T05:07:03;96131.39;;;21.38;59.78
34065;BME280;20339;49.754;20.158;2023-07-24T05:09:38;96133.39;;;21.37;60.05
34065;BME280;20339;49.754;20.158;2023-07-24T05:12:11;96131.23;;;21.46;59.98
34065;BME280;20339;49.754;20.158;2023-07-24T05:14:42;96132.77;;;21.94;60.67
34065;BME280;20339;49.754;20.158;2023-07-24T05:17:13;96127.95;;;22.81;59.91
34065;BME280;20339;49.754;20.158;2023-07-24T05:19:44;96122.80;;;23.43;57.94
34065;BME280;20339;49.754;20.158;2023-07-24T05:22:15;96126.15;;;23.81;56.60
34065;BME280;20339;49.754;20.158;2023-07-24T05:24:46;96133.61;;;24.20;56.25
34065;BME280;20339;49.754;20.158;2023-07-24T05:27:18;96127.55;;;24.71;55.27
34065;BME280;20339;49.754;20.158;2023-07-24T05:29:49;96124.68;;;25.12;54.26
34065;BME280;20339;49.754;20.158;2023-07-24T05:32:20;96125.67;;;25.48;53.53
34065;BME280;20339;49.754;20.158;2023-07-24T05:34:51;96127.89;;;25.71;52.44
34065;BME280;20339;49.754;20.158;2023-07-24T05:37:24;96123.23;;;25.81;51.74
34065;BME280;20339;49.754;20.158;2023-07-24T05:39:56;96126.86;;;25.62;50.87
34065;BME280;20339;49.754;20.158;2023-07-24T05:42:27;96130.05;;;24.93;51.72
34065;BME280;20339;49.754;20.158;2023-07-24T05:44:58;96127.21;;;25.03;52.69
34065;BME280;20339;49.754;20.158;2023-07-24T05:47:29;96131.73;;;25.54;52.64
34065;BME280;20339;49.754;20.158;2023-07-24T05:50:01;96130.06;;;25.91;51.73
34065;BME280;20339;49.754;20.158;2023-07-24T05:52:32;96133.27;;;26.21;51.61
34065;BME280;20339;49.754;20.158;2023-07-24T05:55:03;96123.52;;;26.48;50.74
34065;BME280;20339;49.754;20.158;2023-07-24T05:57:40;96126.95;;;26.71;50.40
34065;BME280;20339;49.754;20.158;2023-07-24T06:00:13;96127.77;;;27.00;49.87
34065;BME280;20339;49.754;20.158;2023-07-24T06:02:46;96127.38;;;27.17;49.51
34065;BME280;20339;49.754;20.158;2023-07-24T06:05:18;96127.13;;;27.30;49.19
34065;BME280;20339;49.754;20.158;2023-07-24T06:07:49;96134.19;;;27.34;48.60
34065;BME280;20339;49.754;20.158;2023-07-24T06:10:20;96131.50;;;27.04;48.77
34065;BME280;20339;49.754;20.158;2023-07-24T06:12:51;96135.78;;;27.13;48.80
34065;BME280;20339;49.754;20.158;2023-07-24T06:15:23;96140.89;;;27.19;48.81
34065;BME280;20339;49.754;20.158;2023-07-24T06:17:54;96139.05;;;27.39;48.85
34065;BME280;20339;49.754;20.158;2023-07-24T06:20:27;96134.38;;;27.75;48.78
34065;BME280;20339;49.754;20.158;2023-07-24T06:22:59;96139.40;;;28.16;48.63
34065;BME280;20339;49.754;20.158;2023-07-24T06:25:31;96143.14;;;28.50;48.12
34065;BME280;20339;49.754;20.158;2023-07-24T06:28:02;96146.58;;;28.69;47.53
34065;BME280;20339;49.754;20.158;2023-07-24T06:30:34;96142.67;;;28.84;47.31
34065;BME280;20339;49.754;20.158;2023-07-24T06:33:12;96144.98;;;28.88;47.12
34065;BME280;20339;49.754;20.158;2023-07-24T06:35:43;96139.94;;;28.98;46.88
34065;BME280;20339;49.754;20.158;2023-07-24T06:38:17;96141.23;;;28.87;47.12
34065;BME280;20339;49.754;20.158;2023-07-24T06:40:51;96141.30;;;28.89;46.62
34065;BME280;20339;49.754;20.158;2023-07-24T06:43:24;96140.45;;;29.12;47.23
34065;BME280;20339;49.754;20.158;2023-07-24T06:45:57;96139.99;;;29.52;46.86
34065;BME280;20339;49.754;20.158;2023-07-24T06:48:28;96137.04;;;29.72;46.61
34065;BME280;20339;49.754;20.158;2023-07-24T06:51:00;96142.01;;;29.92;46.36
34065;BME280;20339;49.754;20.158;2023-07-24T06:53:31;96141.23;;;29.68;45.87
34065;BME280;20339;49.754;20.158;2023-07-24T06:56:03;96137.77;;;28.89;45.80
34065;BME280;20339;49.754;20.158;2023-07-24T06:58:36;96139.13;;;28.30;46.51
34065;BME280;20339;49.754;20.158;2023-07-24T07:01:08;96140.91;;;27.85;47.10
34065;BME280;20339;49.754;20.158;2023-07-24T07:03:41;96138.10;;;27.31;47.54
34065;BME280;20339;49.754;20.158;2023-07-24T07:06:14;96138.32;;;26.59;48.24
34065;BME280;20339;49.754;20.158;2023-07-24T07:08:45;96143.98;;;26.28;49.01
34065;BME280;20339;49.754;20.158;2023-07-24T07:11:16;96147.44;;;26.52;50.07
34065;BME280;20339;49.754;20.158;2023-07-24T07:13:48;96137.81;;;26.94;49.39
34065;BME280;20339;49.754;20.158;2023-07-24T07:16:19;96134.16;;;27.49;49.94
34065;BME280;20339;49.754;20.158;2023-07-24T07:18:50;96131.00;;;27.98;49.03
34065;BME280;20339;49.754;20.158;2023-07-24T07:21:22;96130.42;;;28.18;48.95
34065;BME280;20339;49.754;20.158;2023-07-24T07:23:53;96134.31;;;28.58;48.00
34065;BME280;20339;49.754;20.158;2023-07-24T07:26:25;96134.41;;;28.42;47.01
34065;BME280;20339;49.754;20.158;2023-07-24T07:28:57;96131.66;;;28.36;47.26
34065;BME280;20339;49.754;20.158;2023-07-24T07:31:30;96134.33;;;28.36;47.17
34065;BME280;20339;49.754;20.158;2023-07-24T07:34:01;96133.64;;;28.42;47.30
34065;BME280;20339;49.754;20.158;2023-07-24T07:36:33;96138.48;;;28.40;47.01
34065;BME280;20339;49.754;20.158;2023-07-24T07:39:04;96140.83;;;28.39;47.35
34065;BME280;20339;49.754;20.158;2023-07-24T07:41:37;96145.40;;;28.84;47.71
34065;BME280;20339;49.754;20.158;2023-07-24T07:44:11;96138.10;;;29.13;47.67
34065;BME280;20339;49.754;20.158;2023-07-24T07:46:42;96137.02;;;29.17;46.58
34065;BME280;20339;49.754;20.158;2023-07-24T07:49:13;96138.96;;;29.19;46.69
34065;BME280;20339;49.754;20.158;2023-07-24T07:51:45;96138.86;;;28.90;46.17
34065;BME280;20339;49.754;20.158;2023-07-24T07:54:18;96134.75;;;28.38;46.39
34065;BME280;20339;49.754;20.158;2023-07-24T07:56:49;96125.64;;;28.05;46.74
34065;BME280;20339;49.754;20.158;2023-07-24T07:59:20;96122.20;;;28.15;47.17
34065;BME280;20339;49.754;20.158;2023-07-24T08:01:51;96120.38;;;28.43;47.41
34065;BME280;20339;49.754;20.158;2023-07-24T08:04:22;96115.38;;;28.51;46.97
34065;BME280;20339;49.754;20.158;2023-07-24T08:06:56;96110.95;;;28.27;47.30
34065;BME280;20339;49.754;20.158;2023-07-24T08:09:30;96110.87;;;28.44;47.25
34065;BME280;20339;49.754;20.158;2023-07-24T08:12:02;96108.54;;;28.83;47.36
34065;BME280;20339;49.754;20.158;2023-07-24T08:14:34;96110.56;;;29.24;47.06
34065;BME280;20339;49.754;20.158;2023-07-24T08:17:06;96108.73;;;29.38;46.28
34065;BME280;20339;49.754;20.158;2023-07-24T08:19:38;96110.66;;;29.45;46.10
34065;BME280;20339;49.754;20.158;2023-07-24T08:22:14;96109.91;;;29.60;45.85
34065;BME280;20339;49.754;20.158;2023-07-24T08:24:45;96108.55;;;29.90;46.01
34065;BME280;20339;49.754;20.158;2023-07-24T08:27:20;96103.08;;;30.27;46.18
34065;BME280;20339;49.754;20.158;2023-07-24T08:29:53;96108.20;;;30.75;46.06
34065;BME280;20339;49.754;20.158;2023-07-24T08:32:27;96106.11;;;30.82;44.50
34065;BME280;20339;49.754;20.158;2023-07-24T08:34:58;96104.09;;;30.48;44.22
34065;BME280;20339;49.754;20.158;2023-07-24T08:37:30;96099.99;;;30.12;43.44
34065;BME280;20339;49.754;20.158;2023-07-24T08:40:02;96100.90;;;29.76;43.86
34065;BME280;20339;49.754;20.158;2023-07-24T08:42:34;96099.09;;;29.78;43.77
34065;BME280;20339;49.754;20.158;2023-07-24T08:45:15;96091.37;;;29.91;43.56
34065;BME280;20339;49.754;20.158;2023-07-24T08:47:55;96097.48;;;29.98;43.33
34065;BME280;20339;49.754;20.158;2023-07-24T08:50:27;96090.86;;;29.88;42.50
34065;BME280;20339;49.754;20.158;2023-07-24T08:53:03;96086.60;;;29.68;42.74
34065;BME280;20339;49.754;20.158;2023-07-24T08:55:35;96083.89;;;29.76;42.79
34065;BME280;20339;49.754;20.158;2023-07-24T08:58:11;96086.20;;;29.63;42.11
34065;BME280;20339;49.754;20.158;2023-07-24T09:00:43;96088.36;;;29.22;41.68
34065;BME280;20339;49.754;20.158;2023-07-24T09:03:17;96096.44;;;29.15;42.93
34065;BME280;20339;49.754;20.158;2023-07-24T09:05:48;96095.52;;;29.19;43.25
34065;BME280;20339;49.754;20.158;2023-07-24T09:08:29;96091.09;;;29.28;43.37
34065;BME280;20339;49.754;20.158;2023-07-24T09:11:03;96086.35;;;29.37;43.41
34065;BME280;20339;49.754;20.158;2023-07-24T09:13:40;96083.52;;;29.45;43.49
34065;BME280;20339;49.754;20.158;2023-07-24T09:16:22;96085.41;;;29.49;43.65
34065;BME280;20339;49.754;20.158;2023-07-24T09:18:56;96083.00;;;29.42;43.03
34065;BME280;20339;49.754;20.158;2023-07-24T09:21:32;96069.41;;;29.37;42.90
34065;BME280;20339;49.754;20.158;2023-07-24T09:24:13;96065.29;;;29.32;43.21
34065;BME280;20339;49.754;20.158;2023-07-24T09:26:52;96065.98;;;29.27;43.66
34065;BME280;20339;49.754;20.158;2023-07-24T09:29:31;96055.95;;;29.04;41.84
34065;BME280;20339;49.754;20.158;2023-07-24T09:32:01;96060.08;;;28.55;41.34
34065;BME280;20339;49.754;20.158;2023-07-24T09:34:33;96066.30;;;28.21;41.22
34065;BME280;20339;49.754;20.158;2023-07-24T09:37:05;96071.98;;;28.14;41.88
34065;BME280;20339;49.754;20.158;2023-07-24T09:39:40;96061.48;;;28.20;42.05
34065;BME280;20339;49.754;20.158;2023-07-24T09:42:11;96054.40;;;28.27;42.46
34065;BME280;20339;49.754;20.158;2023-07-24T09:44:45;96050.48;;;28.45;42.42
34065;BME280;20339;49.754;20.158;2023-07-24T09:47:16;96048.84;;;28.63;42.55
34065;BME280;20339;49.754;20.158;2023-07-24T09:49:48;96048.70;;;28.80;42.46
34065;BME280;20339;49.754;20.158;2023-07-24T09:52:20;96046.57;;;28.89;41.96
34065;BME280;20339;49.754;20.158;2023-07-24T09:54:59;96043.23;;;28.99;41.71
34065;BME280;20339;49.754;20.158;2023-07-24T09:57:31;96040.55;;;29.07;41.17
34065;BME280;20339;49.754;20.158;2023-07-24T10:00:04;96034.83;;;28.98;40.61
34065;BME280;20339;49.754;20.158;2023-07-24T10:02:38;96036.54;;;28.93;40.51
34065;BME280;20339;49.754;20.158;2023-07-24T10:05:12;96034.30;;;28.78;39.09
34065;BME280;20339;49.754;20.158;2023-07-24T10:07:43;96041.64;;;28.53;38.10
34065;BME280;20339;49.754;20.158;2023-07-24T10:10:16;96037.10;;;28.22;37.95
34065;BME280;20339;49.754;20.158;2023-07-24T10:12:49;96032.09;;;28.02;38.30
34065;BME280;20339;49.754;20.158;2023-07-24T10:15:21;96029.86;;;28.06;39.00
34065;BME280;20339;49.754;20.158;2023-07-24T10:18:03;96030.30;;;28.09;38.99
34065;BME280;20339;49.754;20.158;2023-07-24T10:20:38;96027.88;;;28.09;39.37
34065;BME280;20339;49.754;20.158;2023-07-24T10:23:18;96031.30;;;28.16;39.00
34065;BME280;20339;49.754;20.158;2023-07-24T10:25:51;96027.90;;;28.22;38.91
34065;BME280;20339;49.754;20.158;2023-07-24T10:28:32;96027.73;;;28.23;38.21
34065;BME280;20339;49.754;20.158;2023-07-24T10:31:05;96025.02;;;28.22;38.44
34065;BME280;20339;49.754;20.158;2023-07-24T10:33:45;96027.17;;;28.23;38.24
34065;BME280;20339;49.754;20.158;2023-07-24T10:36:19;96025.20;;;28.28;37.84
34065;BME280;20339;49.754;20.158;2023-07-24T10:38:56;96014.95;;;28.32;37.75
34065;BME280;20339;49.754;20.158;2023-07-24T10:41:42;96020.48;;;28.32;37.39
34065;BME280;20339;49.754;20.158;2023-07-24T10:44:14;96017.14;;;28.37;37.60
34065;BME280;20339;49.754;20.158;2023-07-24T10:46:48;96016.91;;;28.43;37.97
34065;BME280;20339;49.754;20.158;2023-07-24T10:49:23;96010.56;;;28.34;37.08
34065;BME280;20339;49.754;20.158;2023-07-24T10:51:58;96012.67;;;28.25;37.01
34065;BME280;20339;49.754;20.158;2023-07-24T10:54:31;96009.52;;;28.15;37.28
34065;BME280;20339;49.754;20.158;2023-07-24T10:57:03;96010.04;;;28.04;37.77
34065;BME280;20339;49.754;20.158;2023-07-24T10:59:41;96007.52;;;27.91;37.68
34065;BME280;20339;49.754;20.158;2023-07-24T11:02:12;96005.13;;;27.74;37.79
34065;BME280;20339;49.754;20.158;2023-07-24T11:04:44;95999.70;;;27.61;37.91
34065;BME280;20339;49.754;20.158;2023-07-24T11:07:16;95994.57;;;27.53;38.12
34065;BME280;20339;49.754;20.158;2023-07-24T11:09:48;95987.66;;;27.51;38.43
34065;BME280;20339;49.754;20.158;2023-07-24T11:12:21;95988.42;;;27.61;38.90
34065;BME280;20339;49.754;20.158;2023-07-24T11:14:56;95980.42;;;27.77;39.19
34065;BME280;20339;49.754;20.158;2023-07-24T11:17:36;95977.21;;;27.95;39.16
34065;BME280;20339;49.754;20.158;2023-07-24T11:20:14;95975.98;;;28.19;39.59
34065;BME280;20339;49.754;20.158;2023-07-24T11:22:48;95970.04;;;28.31;39.46
34065;BME280;20339;49.754;20.158;2023-07-24T11:25:20;95970.08;;;28.25;38.91
34065;BME280;20339;49.754;20.158;2023-07-24T11:27:51;95967.20;;;28.19;38.73
34065;BME280;20339;49.754;20.158;2023-07-24T11:30:22;95966.00;;;28.27;38.66
34065;BME280;20339;49.754;20.158;2023-07-24T11:32:54;95966.33;;;28.33;39.53
34065;BME280;20339;49.754;20.158;2023-07-24T11:35:26;95957.86;;;28.43;39.94
34065;BME280;20339;49.754;20.158;2023-07-24T11:37:58;95957.13;;;28.63;40.33
34065;BME280;20339;49.754;20.158;2023-07-24T11:40:36;95950.08;;;28.80;39.83
34065;BME280;20339;49.754;20.158;2023-07-24T11:43:18;95951.14;;;28.78;39.11
34065;BME280;20339;49.754;20.158;2023-07-24T11:45:51;95952.55;;;28.73;38.97
34065;BME280;20339;49.754;20.158;2023-07-24T11:48:24;95952.09;;;28.65;39.02
34065;BME280;20339;49.754;20.158;2023-07-24T11:50:56;95949.14;;;28.59;38.81
34065;BME280;20339;49.754;20.158;2023-07-24T11:53:30;95944.58;;;28.56;38.75
34065;BME280;20339;49.754;20.158;2023-07-24T11:56:02;95941.30;;;28.57;39.35
34065;BME280;20339;49.754;20.158;2023-07-24T11:58:43;95945.58;;;28.58;38.92
34065;BME280;20339;49.754;20.158;2023-07-24T12:01:17;95940.13;;;28.63;38.84
34065;BME280;20339;49.754;20.158;2023-07-24T12:03:51;95936.81;;;28.62;38.79
34065;BME280;20339;49.754;20.158;2023-07-24T12:06:22;95932.33;;;28.58;38.89
34065;BME280;20339;49.754;20.158;2023-07-24T12:09:04;95929.95;;;28.55;39.39
34065;BME280;20339;49.754;20.158;2023-07-24T12:11:42;95929.14;;;28.58;39.84
34065;BME280;20339;49.754;20.158;2023-07-24T12:14:14;95921.09;;;28.70;39.43
34065;BME280;20339;49.754;20.158;2023-07-24T12:16:46;95912.53;;;28.90;39.37
34065;BME280;20339;49.754;20.158;2023-07-24T12:19:20;95909.77;;;29.07;38.64
34065;BME280;20339;49.754;20.158;2023-07-24T12:21:52;95902.59;;;29.21;38.73
34065;BME280;20339;49.754;20.158;2023-07-24T12:24:23;95898.38;;;29.30;38.68
34065;BME280;20339;49.754;20.158;2023-07-24T12:26:58;95892.46;;;29.37;38.31
34065;BME280;20339;49.754;20.158;2023-07-24T12:29:30;95883.60;;;29.49;38.76
34065;BME280;20339;49.754;20.158;2023-07-24T12:32:02;95881.39;;;29.60;38.70
34065;BME280;20339;49.754;20.158;2023-07-24T12:34:39;95867.95;;;29.68;38.63
34065;BME280;20339;49.754;20.158;2023-07-24T12:37:17;95865.56;;;29.71;39.08
34065;BME280;20339;49.754;20.158;2023-07-24T12:39:52;95865.46;;;29.67;38.77
34065;BME280;20339;49.754;20.158;2023-07-24T12:42:25;95855.51;;;29.59;38.62
34065;BME280;20339;49.754;20.158;2023-07-24T12:44:56;95853.08;;;29.50;38.75
34065;BME280;20339;49.754;20.158;2023-07-24T12:47:28;95851.23;;;29.39;38.75
34065;BME280;20339;49.754;20.158;2023-07-24T12:50:03;95853.79;;;29.36;38.95
34065;BME280;20339;49.754;20.158;2023-07-24T12:52:36;95854.41;;;29.40;38.53
34065;BME280;20339;49.754;20.158;2023-07-24T12:55:10;95848.30;;;29.41;38.58
34065;BME280;20339;49.754;20.158;2023-07-24T12:57:42;95842.57;;;29.39;38.86
34065;BME280;20339;49.754;20.158;2023-07-24T13:00:15;95844.27;;;29.39;38.87
34065;BME280;20339;49.754;20.158;2023-07-24T13:02:46;95838.96;;;29.40;38.45
34065;BME280;20339;49.754;20.158;2023-07-24T13:05:19;95832.02;;;29.32;37.96
34065;BME280;20339;49.754;20.158;2023-07-24T13:07:51;95832.42;;;29.28;38.71
34065;BME280;20339;49.754;20.158;2023-07-24T13:10:22;95829.20;;;29.16;37.91
34065;BME280;20339;49.754;20.158;2023-07-24T13:12:58;95829.55;;;29.01;37.75
34065;BME280;20339;49.754;20.158;2023-07-24T13:15:30;95829.75;;;28.89;38.29
34065;BME280;20339;49.754;20.158;2023-07-24T13:18:02;95827.27;;;28.82;38.71
34065;BME280;20339;49.754;20.158;2023-07-24T13:20:33;95825.19;;;28.72;38.38